Phoenix Cross — MRBQ7 — position and weather

sailwx.info

Track history (hours):
 
Tides and Currents Weather Stations Pressure Air Temp Water Temp Dewpoint Dewpoint Depression Visibility Wind Speed Wind Dir Waves Ship Positions

Phoenix Cross

Last reported at 2015-Apr-17 14:32 UTC. Time now 2015-Apr-18 03:27 UTC.
Position N 54°35' W 001°13'.

Length 30 m; draft 5 m.

Type: Ship. MMSI: 235067452.

Date/timePositionNaut miles runAvg speedWind from/ knotsBaromVisibWave heightAir tempDewpointWater temp
2015-Apr-17 14:32N 54°35' W 001°13'0 0.0
2015-Apr-17 13:33N 54°35' W 001°13'0 0.0
2015-Apr-17 12:33N 54°35' W 001°13'0 0.0
2015-Apr-17 11:33N 54°35' W 001°13'0 0.0
2015-Apr-17 10:34N 54°35' W 001°13'0 0.0
2015-Apr-17 09:33N 54°35' W 001°13'0 0.0
2015-Apr-17 08:33N 54°35' W 001°13'0 0.0
2015-Apr-17 07:32N 54°35' W 001°13'0 0.0
2015-Apr-17 06:32N 54°35' W 001°13'0 0.0
2015-Apr-17 05:32N 54°35' W 001°13'0 0.0
2015-Apr-16 16:33N 54°35' W 001°13'0 0.0
2015-Apr-16 15:33N 54°35' W 001°13'0 0.0
2015-Apr-16 14:34N 54°35' W 001°13'0 0.0
2015-Apr-16 13:32N 54°35' W 001°13'0 0.0
2015-Apr-16 12:33N 54°35' W 001°13'0 0.0
2015-Apr-16 11:32N 54°35' W 001°13'0 0.0
2015-Apr-16 10:33N 54°35' W 001°13'0 0.0
2015-Apr-16 09:33N 54°35' W 001°13'0 0.0
2015-Apr-16 08:32N 54°35' W 001°13'0 0.0
2015-Apr-16 07:33N 54°35' W 001°13'0 0.0
2015-Apr-16 06:32N 54°35' W 001°13'0 0.0
2015-Apr-16 05:29N 54°35' W 001°13'0 0.0
2015-Apr-15 16:31N 54°35' W 001°13'0 0.0
2015-Apr-15 15:31N 54°35' W 001°13'0 0.0
2015-Apr-15 14:33N 54°35' W 001°13'0 0.0
2015-Apr-15 13:33N 54°35' W 001°13'0 0.0
2015-Apr-15 12:32N 54°35' W 001°13'0 0.0
2015-Apr-15 11:32N 54°35' W 001°13'0 0.0
2015-Apr-15 10:33N 54°35' W 001°13'0 0.0
2015-Apr-15 09:33N 54°35' W 001°13'3 3.3
2015-Apr-15 08:33N 54°37' W 001°09'2 1.6
2015-Apr-15 07:32N 54°36' W 001°10'2 1.7
2015-Apr-15 06:33N 54°35' W 001°13'0 0.0
2015-Apr-14 14:30N 54°35' W 001°13'0 0.0
2015-Apr-14 13:32N 54°35' W 001°13'0 0.0
2015-Apr-14 12:32N 54°35' W 001°13'0 0.0
2015-Apr-14 11:34N 54°35' W 001°13'0 0.0
2015-Apr-14 10:33N 54°35' W 001°13'0 0.0
2015-Apr-14 09:32N 54°35' W 001°13'2 1.7
2015-Apr-14 08:34N 54°36' W 001°10'3 2.6
2015-Apr-14 07:32N 54°38' W 001°09'4 4.3
2015-Apr-14 06:33N 54°35' W 001°13'0 0.0
2015-Apr-14 05:30N 54°35' W 001°13'0 0.0
2015-Apr-13 17:25N 54°35' W 001°13'0 0.0
2015-Apr-13 16:30N 54°35' W 001°13'0 0.0
2015-Apr-13 15:34N 54°35' W 001°13'0 0.0
2015-Apr-13 14:32N 54°35' W 001°13'0 0.0
2015-Apr-13 13:32N 54°35' W 001°13'0 0.0
2015-Apr-13 12:33N 54°35' W 001°13'0 0.0
2015-Apr-13 11:33N 54°35' W 001°13'2 1.7
2015-Apr-13 10:33N 54°36' W 001°10'2 1.5
2015-Apr-13 09:33N 54°37' W 001°09'1 1.3
2015-Apr-13 08:33N 54°36' W 001°10'1 1.3
2015-Apr-13 07:33N 54°37' W 001°09'1 0.5
2015-Apr-13 06:32N 54°38' W 001°09'3 3.5
2015-Apr-13 05:32N 54°35' W 001°13'2 0.1
2015-Apr-12 13:33N 54°36' W 001°10'2 1.6
2015-Apr-12 12:33N 54°35' W 001°12'0 0.4
2015-Apr-12 11:33N 54°35' W 001°13'0 0.0
2015-Apr-12 10:33N 54°35' W 001°13'0 0.0
2015-Apr-12 09:32N 54°35' W 001°13'1 0.6
2015-Apr-12 08:32N 54°35' W 001°12'1 0.5
2015-Apr-12 07:33N 54°35' W 001°12'0 0.1
2015-Apr-12 06:34N 54°35' W 001°13'4 0.3
2015-Apr-11 20:12N 54°38' W 001°09'4 0.3
2015-Apr-11 07:33N 54°35' W 001°13'1 1.0
2015-Apr-11 06:32N 54°35' W 001°11'2 0.1
2015-Apr-10 15:31N 54°37' W 001°09'2 1.8
2015-Apr-10 14:33N 54°35' W 001°11'1 1.0
2015-Apr-10 13:30N 54°35' W 001°13'0 0.0
2015-Apr-10 12:33N 54°35' W 001°13'0 0.0
2015-Apr-10 11:32N 54°35' W 001°13'0 0.0
2015-Apr-10 10:33N 54°35' W 001°13'2 1.7
2015-Apr-10 09:33N 54°36' W 001°10'2 2.3
2015-Apr-10 08:33N 54°38' W 001°09'1 0.8
2015-Apr-10 07:34N 54°37' W 001°09'0 0.2
2015-Apr-10 06:33N 54°38' W 001°09'0 0.4
2015-Apr-10 05:32N 54°38' W 001°09'1 0.1
2015-Apr-09 19:16N 54°37' W 001°09'1 1.7
2015-Apr-09 18:26N 54°38' W 001°09'4 2.0
2015-Apr-09 16:17N 54°35' W 001°13'0 0.0
2015-Apr-09 15:31N 54°35' W 001°13'0 0.0
2015-Apr-09 14:32N 54°35' W 001°13'0 0.0
2015-Apr-09 13:33N 54°35' W 001°13'3 3.1
2015-Apr-09 12:32N 54°37' W 001°10'2 2.3
2015-Apr-09 11:32N 54°35' W 001°11'1 0.9
2015-Apr-09 10:31N 54°35' W 001°13'0 0.0
2015-Apr-09 09:32N 54°35' W 001°13'0 0.0
2015-Apr-09 08:32N 54°35' W 001°13'0 0.0
2015-Apr-09 07:33N 54°35' W 001°13'0 0.0
2015-Apr-09 06:33N 54°35' W 001°13'7 0.5
2015-Apr-08 15:33N 54°42' W 001°11'0 0.1
2015-Apr-08 14:33N 54°42' W 001°12'4 4.4
2015-Apr-08 13:32N 54°37' W 001°10'0 0.4
2015-Apr-08 12:33N 54°37' W 001°09'3 1.1
2015-Apr-08 09:30N 54°35' W 001°13'0 0.0
2015-Apr-08 08:33N 54°35' W 001°13'6 5.4
2015-Apr-08 07:27N 54°40' W 001°08'1110.1
2015-Apr-08 06:25N 54°50' W 001°14'7 5.8
2015-Apr-08 05:17N 54°55' W 001°22'0 0.1
2015-Apr-08 04:32N 54°55' W 001°22'7 3.2
2015-Apr-08 02:24N 54°49' W 001°14'910.0
2015-Apr-08 01:32N 54°41' W 001°08'7 0.7
2015-Apr-07 15:33N 54°35' W 001°13'0 0.0
2015-Apr-07 14:34N 54°35' W 001°13'  
Track history (hours):
 
Tides and Currents Weather Stations Pressure Air Temp Water Temp Dewpoint Dewpoint Depression Visibility Wind Speed Wind Dir Waves Ship Positions

Phoenix Cross

Last reported at 2015-Apr-17 14:32 UTC. Time now 2015-Apr-18 03:27 UTC.
Position N 54°35' W 001°13'.

Length 30 m; draft 5 m.

Type: Ship. MMSI: 235067452.

Date/timePositionNaut miles runAvg speedWind from/ knotsBaromVisibWave heightAir tempDewpointWater temp
2015-Apr-17 14:32N 54°35' W 001°13'0 0.0
2015-Apr-17 13:33N 54°35' W 001°13'0 0.0
2015-Apr-17 12:33N 54°35' W 001°13'0 0.0
2015-Apr-17 11:33N 54°35' W 001°13'0 0.0
2015-Apr-17 10:34N 54°35' W 001°13'0 0.0
2015-Apr-17 09:33N 54°35' W 001°13'0 0.0
2015-Apr-17 08:33N 54°35' W 001°13'0 0.0
2015-Apr-17 07:32N 54°35' W 001°13'0 0.0
2015-Apr-17 06:32N 54°35' W 001°13'0 0.0
2015-Apr-17 05:32N 54°35' W 001°13'0 0.0
2015-Apr-16 16:33N 54°35' W 001°13'0 0.0
2015-Apr-16 15:33N 54°35' W 001°13'0 0.0
2015-Apr-16 14:34N 54°35' W 001°13'0 0.0
2015-Apr-16 13:32N 54°35' W 001°13'0 0.0
2015-Apr-16 12:33N 54°35' W 001°13'0 0.0
2015-Apr-16 11:32N 54°35' W 001°13'0 0.0
2015-Apr-16 10:33N 54°35' W 001°13'0 0.0
2015-Apr-16 09:33N 54°35' W 001°13'0 0.0
2015-Apr-16 08:32N 54°35' W 001°13'0 0.0
2015-Apr-16 07:33N 54°35' W 001°13'0 0.0
2015-Apr-16 06:32N 54°35' W 001°13'0 0.0
2015-Apr-16 05:29N 54°35' W 001°13'0 0.0
2015-Apr-15 16:31N 54°35' W 001°13'0 0.0
2015-Apr-15 15:31N 54°35' W 001°13'0 0.0
2015-Apr-15 14:33N 54°35' W 001°13'0 0.0
2015-Apr-15 13:33N 54°35' W 001°13'0 0.0
2015-Apr-15 12:32N 54°35' W 001°13'0 0.0
2015-Apr-15 11:32N 54°35' W 001°13'0 0.0
2015-Apr-15 10:33N 54°35' W 001°13'0 0.0
2015-Apr-15 09:33N 54°35' W 001°13'3 3.3
2015-Apr-15 08:33N 54°37' W 001°09'2 1.6
2015-Apr-15 07:32N 54°36' W 001°10'2 1.7
2015-Apr-15 06:33N 54°35' W 001°13'0 0.0
2015-Apr-14 14:30N 54°35' W 001°13'0 0.0
2015-Apr-14 13:32N 54°35' W 001°13'0 0.0
2015-Apr-14 12:32N 54°35' W 001°13'0 0.0
2015-Apr-14 11:34N 54°35' W 001°13'0 0.0
2015-Apr-14 10:33N 54°35' W 001°13'0 0.0
2015-Apr-14 09:32N 54°35' W 001°13'2 1.7
2015-Apr-14 08:34N 54°36' W 001°10'3 2.6
2015-Apr-14 07:32N 54°38' W 001°09'4 4.3
2015-Apr-14 06:33N 54°35' W 001°13'0 0.0
2015-Apr-14 05:30N 54°35' W 001°13'0 0.0
2015-Apr-13 17:25N 54°35' W 001°13'0 0.0
2015-Apr-13 16:30N 54°35' W 001°13'0 0.0
2015-Apr-13 15:34N 54°35' W 001°13'0 0.0
2015-Apr-13 14:32N 54°35' W 001°13'0 0.0
2015-Apr-13 13:32N 54°35' W 001°13'0 0.0
2015-Apr-13 12:33N 54°35' W 001°13'0 0.0
2015-Apr-13 11:33N 54°35' W 001°13'2 1.7
2015-Apr-13 10:33N 54°36' W 001°10'2 1.5
2015-Apr-13 09:33N 54°37' W 001°09'1 1.3
2015-Apr-13 08:33N 54°36' W 001°10'1 1.3
2015-Apr-13 07:33N 54°37' W 001°09'1 0.5
2015-Apr-13 06:32N 54°38' W 001°09'3 3.5
2015-Apr-13 05:32N 54°35' W 001°13'2 0.1
2015-Apr-12 13:33N 54°36' W 001°10'2 1.6
2015-Apr-12 12:33N 54°35' W 001°12'0 0.4
2015-Apr-12 11:33N 54°35' W 001°13'0 0.0
2015-Apr-12 10:33N 54°35' W 001°13'0 0.0
2015-Apr-12 09:32N 54°35' W 001°13'1 0.6
2015-Apr-12 08:32N 54°35' W 001°12'1 0.5
2015-Apr-12 07:33N 54°35' W 001°12'0 0.1
2015-Apr-12 06:34N 54°35' W 001°13'4 0.3
2015-Apr-11 20:12N 54°38' W 001°09'4 0.3
2015-Apr-11 07:33N 54°35' W 001°13'1 1.0
2015-Apr-11 06:32N 54°35' W 001°11'2 0.1
2015-Apr-10 15:31N 54°37' W 001°09'2 1.8
2015-Apr-10 14:33N 54°35' W 001°11'1 1.0
2015-Apr-10 13:30N 54°35' W 001°13'0 0.0
2015-Apr-10 12:33N 54°35' W 001°13'0 0.0
2015-Apr-10 11:32N 54°35' W 001°13'0 0.0
2015-Apr-10 10:33N 54°35' W 001°13'2 1.7
2015-Apr-10 09:33N 54°36' W 001°10'2 2.3
2015-Apr-10 08:33N 54°38' W 001°09'1 0.8
2015-Apr-10 07:34N 54°37' W 001°09'0 0.2
2015-Apr-10 06:33N 54°38' W 001°09'0 0.4
2015-Apr-10 05:32N 54°38' W 001°09'1 0.1
2015-Apr-09 19:16N 54°37' W 001°09'1 1.7
2015-Apr-09 18:26N 54°38' W 001°09'4 2.0
2015-Apr-09 16:17N 54°35' W 001°13'0 0.0
2015-Apr-09 15:31N 54°35' W 001°13'0 0.0
2015-Apr-09 14:32N 54°35' W 001°13'0 0.0
2015-Apr-09 13:33N 54°35' W 001°13'3 3.1
2015-Apr-09 12:32N 54°37' W 001°10'2 2.3
2015-Apr-09 11:32N 54°35' W 001°11'1 0.9
2015-Apr-09 10:31N 54°35' W 001°13'0 0.0
2015-Apr-09 09:32N 54°35' W 001°13'0 0.0
2015-Apr-09 08:32N 54°35' W 001°13'0 0.0
2015-Apr-09 07:33N 54°35' W 001°13'0 0.0
2015-Apr-09 06:33N 54°35' W 001°13'7 0.5
2015-Apr-08 15:33N 54°42' W 001°11'0 0.1
2015-Apr-08 14:33N 54°42' W 001°12'4 4.4
2015-Apr-08 13:32N 54°37' W 001°10'0 0.4
2015-Apr-08 12:33N 54°37' W 001°09'3 1.1
2015-Apr-08 09:30N 54°35' W 001°13'0 0.0
2015-Apr-08 08:33N 54°35' W 001°13'6 5.4
2015-Apr-08 07:27N 54°40' W 001°08'1110.1
2015-Apr-08 06:25N 54°50' W 001°14'7 5.8
2015-Apr-08 05:17N 54°55' W 001°22'0 0.1
2015-Apr-08 04:32N 54°55' W 001°22'7 3.2
2015-Apr-08 02:24N 54°49' W 001°14'910.0
2015-Apr-08 01:32N 54°41' W 001°08'7 0.7
2015-Apr-07 15:33N 54°35' W 001°13'0 0.0
2015-Apr-07 14:34N 54°35' W 001°13'  

Dump ship's entire track history